Nearby METAR Reports

 

KMQS - Coatesville, Pennsylvania, USA
Distance from station: NW 12mi, 19km
Updated: Thu, 28-May-2020 7:35pm EDT
Partly cloudy
Partly cloudy
 Wind from varies
Wind: varies 5 mph , 7 km/h
Temperature: 72°F , 22°C
Dew Point: 72°F , 22°C
Humidity: 100%
Barometer: 30.05 inHg , 1017.6 hPa
Clouds: Partly cloudy
Visibility: 7 miles , 11 km
Cloud details: Few Clouds 600 ft
Partly cloudy 1300 ft
2020/05/28 23:35 KMQS 282335Z AUTO VRB04KT 7SM FEW006 SCT013 22/22 A3005 RMK AO2
KOQN - West Chester, Pennsylvania, USA
Distance from station: NE 13mi, 21km
Updated: Thu, 28-May-2020 7:35pm EDT
Partly cloudy
Partly cloudy
 Wind from SSE
Wind: SSE 3 mph , 6 km/h
Temperature: 73°F , 23°C
Dew Point: 70°F , 21°C
Humidity: 89%
Barometer: 30.04 inHg , 1017.3 hPa
Clouds: Partly cloudy
Visibility: 10 miles , 16 km
Cloud details: Partly cloudy 2500 ft
Partly cloudy 2900 ft
2020/05/28 23:35 KOQN 282335Z AUTO 16003KT 10SM SCT025 SCT029 23/21 A3004 RMK AO2
 
KILG - Wilmington, Delaware, USA
Distance from station: SSE 14mi, 23km
Updated: Thu, 28-May-2020 7:51pm EDT
Clear
Clear
 Wind from SSE
Wind: SSE 12 mph , 19 km/h
Temperature: 70°F , 21°C
Dew Point: 66°F , 19°C
Humidity: 88%
Barometer: 30.04 inHg , 1017.3 hPa
Clouds: Clear
Visibility: 10 miles , 16 km
2020/05/28 23:51 KILG 282351Z AUTO 16010KT 10SM CLR 21/19 A3004 RMK AO2 SLP172 60001 T02060189 10256 20206 56003 $
KPHL - Philadelphia, Pennsylvania, USA
Distance from station: E 27mi, 43km
Updated: Thu, 28-May-2020 7:54pm EDT
Mostly cloudy
Mostly cloudy
 Wind from S
Wind: S 9 mph , 15 km/h
Temperature: 75°F , 24°C
Dew Point: 68°F , 20°C
Humidity: 78%
Barometer: 30.04 inHg , 1017.3 hPa
Clouds: Mostly cloudy
Visibility: 10 miles , 16 km
Cloud details: Few Clouds 2500 ft
Mostly cloudy 3800 ft
Mostly cloudy 25000 ft
2020/05/28 23:54 KPHL 282354Z 17008KT 10SM FEW025 BKN038 BKN250 24/20 A3004 RMK AO2 SLP171 T02440200 10267 20244 58001
 
KPTW - Pottstown, Pennsylvania, USA
Distance from station: NNE 29mi, 47km
Updated: Thu, 28-May-2020 7:54pm EDT
Few Clouds
Few Clouds
 Wind from varies
Wind: varies 5 mph , 7 km/h
Temperature: 73°F , 23°C
Dew Point: 70°F , 21°C
Humidity: 89%
Barometer: 30.04 inHg , 1017.3 hPa
Clouds: Few Clouds
Visibility: 7 miles , 11 km
Cloud details: Few Clouds 1600 ft
2020/05/28 23:54 KPTW 282354Z AUTO VRB04KT 7SM FEW016 23/21 A3004 RMK AO2 SLP169 60003 T02280211 10244 20228 58004
KLOM - Philly Wings F, Pennsylvania, USA
Distance from station: NE 32mi, 52km
Updated: Thu, 28-May-2020 7:35pm EDT
Overcast
Overcast
 Wind from SSE
Wind: SSE 5 mph , 7 km/h
Temperature: 77°F , 25°C
Dew Point: 70°F , 21°C
Humidity: 79%
Barometer: 30.05 inHg , 1017.6 hPa
Clouds: Overcast
Visibility: 10 miles , 16 km
Cloud details: Overcast 2000 ft
2020/05/28 23:35 KLOM 282335Z AUTO 16004KT 10SM OVC020 25/21 A3005 RMK AO2 T02460214
 
KAPG - Aberdeen/Phillip, Maryland, USA
Distance from station: SW 34mi, 55km
Updated: Thu, 28-May-2020 6:58pm EDT
Clear
Clear
 Wind from S
Wind: S 9 mph , 15 km/h
Temperature: 77°F , 25°C
Dew Point: 72°F , 22°C
Humidity: 83%
Barometer: 30.02 inHg , 1016.6 hPa
Clouds: Clear
Visibility: 10 miles , 16 km
2020/05/28 22:58 KAPG 282258Z AUTO 19008KT 10SM CLR 25/22 A3002 RMK AO2 SLP169 T02450216 PNO TSNO $
KLNS - Lancaster, Pennsylvania, USA
Distance from station: WNW 35mi, 57km
Updated: Thu, 28-May-2020 7:53pm EDT
Partly cloudy
Partly cloudy
 Wind from S
Wind: S 15 mph , 24 km/h
Temperature: 77°F , 25°C
Dew Point: 70°F , 21°C
Humidity: 79%
Barometer: 30.01 inHg , 1016.3 hPa
Clouds: Partly cloudy
Visibility: 10 miles , 16 km
Cloud details: Few Clouds 1800 ft
Partly cloudy 2200 ft
2020/05/28 23:53 KLNS 282353Z 18013KT 10SM FEW018 SCT022 25/21 A3001 RMK AO2 SLP158 60000 T02500206 10267 20244 56005
 
KRDG - Reading, Pennsylvania, USA
Distance from station: NNW 38mi, 62km
Updated: Thu, 28-May-2020 7:54pm EDT
Overcast
Overcast
 Wind from SSE
Wind: SSE 7 mph , 11 km/h
Temperature: 79°F , 26°C
Dew Point: 72°F , 22°C
Humidity: 79%
Barometer: 30.00 inHg , 1015.9 hPa
Clouds: Overcast
Visibility: 10 miles , 16 km
Cloud details: Few Clouds 1800 ft
Mostly cloudy 2400 ft
Overcast 3300 ft
2020/05/28 23:54 KRDG 282354Z AUTO 15006KT 10SM FEW018 BKN024 OVC033 26/22 A3000 RMK AO2 SLP161 60000 T02560222 10272 20239 56004
KPNE - Philadelphia/Ne, Pennsylvania, USA
Distance from station: ENE 42mi, 67km
Updated: Thu, 28-May-2020 7:54pm EDT
Overcast
Overcast
 Wind from SSE
Wind: SSE 5 mph , 7 km/h
Temperature: 79°F , 26°C
Dew Point: 70°F , 21°C
Humidity: 74%
Barometer: 30.05 inHg , 1017.6 hPa
Clouds: Overcast
Visibility: 10 miles , 16 km
Cloud details: Few Clouds 1900 ft
Mostly cloudy 3200 ft
Overcast 6000 ft
2020/05/28 23:54 KPNE 282354Z AUTO 15004KT 10SM FEW019 BKN032 OVC060 26/21 A3005 RMK AO2 SLP175 T02560211 10272 20244 56006
 
KCKZ - Perkasie, Pennsylvania, USA
Distance from station: NNE 45mi, 72km
Updated: Thu, 28-May-2020 7:35pm EDT
Overcast
Overcast
 Wind from calm
Wind: Calm
Temperature: 73°F , 23°C
Dew Point: 73°F , 23°C
Humidity: 100%
Barometer: 30.05 inHg , 1017.6 hPa
Clouds: Overcast
Visibility: 10 miles , 16 km
Cloud details: Mostly cloudy 1900 ft
Mostly cloudy 2500 ft
Overcast 3700 ft
2020/05/28 23:35 KCKZ 282335Z AUTO 00000KT 10SM BKN019 BKN025 OVC037 23/23 A3005 RMK AO2
KUKT - Quakertown Arp, Pennsylvania, USA
Distance from station: NNE 45mi, 73km
Updated: Thu, 28-May-2020 7:55pm EDT
Mostly cloudy
Mostly cloudy
 Wind from SSE
Wind: SSE 5 mph , 7 km/h
Temperature: 73°F , 23°C
Dew Point: 73°F , 23°C
Humidity: 100%
Barometer: 30.04 inHg , 1017.3 hPa
Clouds: Mostly cloudy
Visibility: 10 miles , 16 km
Cloud details: Few Clouds 2100 ft
Partly cloudy 2800 ft
Mostly cloudy 3400 ft
2020/05/28 23:55 KUKT 282355Z AUTO 15004KT 10SM FEW021 SCT028 BKN034 23/23 A3004 RMK A01
 
KDYL - Doylestown, Pennsylvania, USA
Distance from station: NE 47mi, 76km
Updated: Thu, 28-May-2020 7:54pm EDT
Overcast
Overcast
 Wind from SSE
Wind: SSE 6 mph , 9 km/h
Temperature: 75°F , 24°C
Dew Point: 70°F , 21°C
Humidity: 83%
Barometer: 30.04 inHg , 1017.3 hPa
Clouds: Overcast
Visibility: 10 miles , 16 km
Cloud details: Mostly cloudy 2100 ft
Overcast 2800 ft
2020/05/28 23:54 KDYL 282354Z AUTO 16005KT 10SM BKN021 OVC028 24/21 A3004 RMK AO2 SLP166 60000 T02440206 10261 20233 58001
KMIV - Millville, New Jersey, USA
Distance from station: SE 48mi, 77km
Updated: Thu, 28-May-2020 7:54pm EDT
Partly cloudy
Partly cloudy
 Wind from varies
Wind: varies 3 mph , 6 km/h
Barometer: 30.06 inHg , 1017.9 hPa
Clouds: Partly cloudy
Visibility: 10 miles , 16 km
Cloud details: Partly cloudy 9000 ft
Partly cloudy 11000 ft
2020/05/28 23:54 KMIV 282354Z AUTO VRB03KT 10SM SCT090 SCT110 A3006 RMK AO2 RAB34E51 SLPNO P0002 60002 56003 $
 
KVAY - Mount Holly, New Jersey, USA
Distance from station: E 48mi, 78km
Updated: Thu, 28-May-2020 7:54pm EDT
Mostly cloudy
Mostly cloudy
 Wind from varies
Wind: varies 7 mph , 11 km/h
Temperature: 75°F , 24°C
Dew Point: 70°F , 21°C
Humidity: 83%
Barometer: 30.05 inHg , 1017.6 hPa
Clouds: Mostly cloudy
Visibility: 10 miles , 16 km
Cloud details: Mostly cloudy 6000 ft
Mostly cloudy 7500 ft
2020/05/28 23:54 KVAY 282354Z AUTO VRB06KT 10SM BKN060 BKN075 24/21 A3005 RMK AO2 SLP174 T02390206 10267 20239 56006